Decoded Metar for KPNE (PHILADELPHIA in PA, USA) (IATA:PNE) | Meteo·Mobile Aviation Weather
aviador You're here:

KPNE Decoded Metar

PHILADELPHIA in PA, USA
Report Time2018-12-14 23:54:00
UTC Time2018-12-15 00:37:14
Flight Rules vfr VFR
WindCalm
Visibility9999 m
Phenomena:N/A
Clouds:Overcast 090 Hf
Expected CloudBase > 800 ft AGL from Temp-Dew spread
Ceiling9,000 ft
Temp10°C (ISA -5)
Dew Point08°C (88% RH)
AAT9.6°C
QNH1027 hPa
Density Alt-814 ft
Elevation92 ft
Report Wrong Elevation
Raw Report
KPNE 142354Z 00000KT 9SM OVC090 10/08 A3034 RMK AO2 SLP275 60000
T01000078 10122 20094 58002=

Extra information for KPNE:More info

Metar Taf Metar & Taf Last 4 Metars F.Rules Stats Wind Profile Meteogram Temp Stats Airport Information Weather charts Add Link Nearby VenuesMetar ALERT Operation Metar Decoded Social comments

AIRNAV info for KPNE